createdAt,value
2022-08-17T00:02:22.491Z,71
2022-08-17T00:07:23.564Z,73
2022-08-17T00:12:40.436Z,74
2022-08-17T00:17:26.710Z,73
2022-08-17T00:22:33.300Z,74
2022-08-17T00:27:30.515Z,74
2022-08-17T00:33:10.361Z,74
2022-08-17T00:37:34.056Z,74
2022-08-17T00:42:35.900Z,75
2022-08-17T00:47:37.100Z,75
2022-08-17T00:52:38.796Z,74
2022-08-17T00:57:40.532Z,75
2022-08-17T01:02:42.657Z,78
2022-08-17T01:07:43.470Z,78
2022-08-17T01:12:45.256Z,77
2022-08-17T01:17:46.521Z,78
2022-08-17T01:22:47.728Z,79
2022-08-17T01:27:49.093Z,79
2022-08-17T01:32:59.551Z,81
2022-08-17T01:37:53.067Z,79
2022-08-17T01:42:54.687Z,81
2022-08-17T01:47:56.392Z,81
2022-08-17T01:52:58.551Z,82
2022-08-17T01:58:00.363Z,83
2022-08-17T02:03:02.212Z,82
2022-08-17T02:08:04.358Z,82
2022-08-17T02:13:06.360Z,85
2022-08-17T02:18:08.247Z,84
2022-08-17T02:23:09.995Z,84
2022-08-17T02:28:11.601Z,86
2022-08-17T02:33:13.124Z,87
2022-08-17T02:38:14.698Z,86
2022-08-17T02:43:16.153Z,86
2022-08-17T02:48:30.496Z,87
2022-08-17T02:53:19.771Z,88
2022-08-17T03:03:29.308Z,87
2022-08-17T03:08:31.295Z,88
2022-08-17T03:23:35.822Z,91
2022-08-17T03:33:38.651Z,94
2022-08-17T03:38:40.349Z,93
2022-08-17T03:48:44.237Z,92
2022-08-17T03:58:47.925Z,95
2022-08-17T04:13:53.451Z,97
2022-08-17T04:18:54.782Z,96
2022-08-17T04:23:56.576Z,95
2022-08-17T04:28:58.060Z,96
2022-08-17T04:34:00.115Z,98
2022-08-17T04:39:01.532Z,99
2022-08-17T04:44:03.358Z,98
2022-08-17T04:49:05.092Z,98
2022-08-17T04:54:07.247Z,100
2022-08-17T04:59:08.900Z,99
2022-08-17T05:04:21.231Z,99
2022-08-17T05:09:12.379Z,98
2022-08-17T05:14:14.224Z,98
2022-08-17T05:19:15.989Z,98
2022-08-17T05:24:38.927Z,97
2022-08-17T05:29:19.382Z,96
2022-08-17T05:34:20.907Z,96
2022-08-17T05:39:22.921Z,92
2022-08-17T05:44:24.865Z,92
2022-08-17T05:49:26.658Z,89
2022-08-17T05:54:28.534Z,89
2022-08-17T05:59:30.306Z,89
2022-08-17T06:04:32.316Z,87
2022-08-17T06:09:34.041Z,84
2022-08-17T06:14:34.704Z,82
2022-08-17T06:19:36.405Z,79
2022-08-17T06:24:38.535Z,77
2022-08-17T06:29:40.064Z,76
2022-08-17T06:34:42.012Z,77
2022-08-17T06:39:44.228Z,74
2022-08-17T06:44:50.574Z,71
2022-08-17T06:49:50.564Z,72
2022-08-17T06:54:48.957Z,69
2022-08-17T06:59:54.407Z,68
2022-08-17T07:04:52.212Z,67
2022-08-17T07:09:53.641Z,66
2022-08-17T07:14:55.369Z,62
2022-08-17T07:19:57.077Z,62
2022-08-17T07:24:59.249Z,60
2022-08-17T07:30:01.047Z,59
2022-08-17T07:35:02.800Z,55
2022-08-17T07:40:15.686Z,54
2022-08-17T07:45:06.578Z,51
2022-08-17T07:50:08.359Z,52
2022-08-17T07:55:09.554Z,52
2022-08-17T08:00:11.326Z,49
2022-08-17T08:05:13.158Z,48
2022-08-17T08:10:15.158Z,45
2022-08-17T08:15:16.870Z,44
2022-08-17T08:20:34.872Z,45
2022-08-17T08:25:19.778Z,44
2022-08-17T08:30:21.883Z,45
2022-08-17T08:35:23.322Z,42
2022-08-17T08:40:25.360Z,42
2022-08-17T08:45:27.256Z,44
2022-08-17T08:50:30.427Z,43
2022-08-17T08:55:30.242Z,42
2022-08-17T09:00:32.351Z,41
2022-08-17T09:05:34.024Z,41
2022-08-17T09:10:35.476Z,40
2022-08-17T09:15:37.583Z,41
2022-08-17T09:20:39.731Z,39
2022-08-17T09:25:41.705Z,38
2022-08-17T09:30:43.201Z,40
2022-08-17T09:35:45.302Z,39
2022-08-17T09:40:46.671Z,41
2022-08-17T09:45:48.515Z,38
2022-08-17T09:50:55.794Z,39
2022-08-17T09:55:52.676Z,37
2022-08-17T10:00:54.828Z,36
2022-08-17T10:05:56.541Z,36
2022-08-17T10:10:57.907Z,35
2022-08-17T10:15:59.451Z,34
2022-08-17T10:21:01.468Z,34
2022-08-17T10:26:02.718Z,35
2022-08-17T10:31:33.512Z,33
2022-08-17T10:36:10.241Z,33
2022-08-17T10:41:08.186Z,35
2022-08-17T10:46:14.550Z,32
2022-08-17T10:51:11.534Z,35
2022-08-17T10:56:12.747Z,33
2022-08-17T11:01:14.375Z,34
2022-08-17T11:06:16.074Z,34
2022-08-17T11:11:17.897Z,34
2022-08-17T11:16:19.841Z,34
2022-08-17T11:21:21.822Z,33
2022-08-17T11:26:31.721Z,34
2022-08-17T11:31:38.224Z,34
2022-08-17T11:36:27.814Z,34
2022-08-17T11:41:29.801Z,34
2022-08-17T11:46:31.659Z,33
2022-08-17T11:51:33.359Z,33
2022-08-17T11:56:35.353Z,32
2022-08-17T12:01:36.866Z,33
2022-08-17T12:06:38.842Z,33
2022-08-17T12:11:55.038Z,31
2022-08-17T12:16:41.506Z,32
2022-08-17T12:21:42.860Z,32
2022-08-17T12:26:44.180Z,32
2022-08-17T12:31:45.739Z,32
2022-08-17T12:36:47.162Z,31
2022-08-17T12:41:50.262Z,32
2022-08-17T12:46:50.485Z,31
2022-08-17T12:51:52.275Z,32
2022-08-17T12:56:53.540Z,32
2022-08-17T13:01:55.523Z,31
2022-08-17T13:06:58.242Z,32
2022-08-17T13:11:58.334Z,30
2022-08-17T13:17:00.508Z,32
2022-08-17T13:22:01.932Z,29
2022-08-17T13:27:07.742Z,29
2022-08-17T13:32:05.273Z,28
2022-08-17T13:37:07.123Z,28
2022-08-17T13:42:11.150Z,30
2022-08-17T13:47:10.085Z,28
2022-08-17T13:52:12.161Z,29
2022-08-17T13:57:13.423Z,30
2022-08-17T14:02:14.707Z,31
2022-08-17T14:07:16.156Z,30
2022-08-17T14:12:17.563Z,30
2022-08-17T14:17:18.744Z,29
2022-08-17T14:22:20.622Z,30
2022-08-17T14:27:22.350Z,29
2022-08-17T14:32:23.825Z,30
2022-08-17T14:37:25.272Z,31
2022-08-17T14:42:26.881Z,28
2022-08-17T14:47:28.879Z,28
2022-08-17T14:52:30.734Z,29
2022-08-17T14:57:33.907Z,29
2022-08-17T15:02:33.170Z,29
2022-08-17T15:07:35.171Z,29
2022-08-17T15:12:36.723Z,29
2022-08-17T15:17:44.122Z,29
2022-08-17T15:22:40.284Z,29
2022-08-17T15:27:41.633Z,28
2022-08-17T15:32:45.717Z,30
2022-08-17T15:37:45.629Z,30
2022-08-17T15:42:47.484Z,29
2022-08-17T15:47:48.945Z,29
2022-08-17T15:52:50.505Z,30
2022-08-17T15:57:52.011Z,30
2022-08-17T16:03:15.849Z,30
2022-08-17T16:07:55.319Z,30
2022-08-17T16:12:57.149Z,30
2022-08-17T16:17:58.590Z,30
2022-08-17T16:23:00.182Z,31
2022-08-17T16:28:01.664Z,31
2022-08-17T16:33:03.791Z,31
2022-08-17T16:38:05.063Z,31
2022-08-17T16:43:06.309Z,31
2022-08-17T16:48:07.838Z,31
2022-08-17T16:53:09.650Z,31
2022-08-17T16:58:11.515Z,31
2022-08-17T17:03:19.301Z,32
2022-08-17T17:08:14.808Z,33
2022-08-17T17:13:16.034Z,32
2022-08-17T17:18:17.843Z,31
2022-08-17T17:23:19.898Z,32
2022-08-17T17:28:21.838Z,33
2022-08-17T18:08:35.120Z,39
2022-08-17T18:13:37.061Z,38
2022-08-17T18:18:38.270Z,40
2022-08-17T18:28:41.313Z,40
2022-08-17T18:33:43.031Z,40
2022-08-17T18:38:45.170Z,40
2022-08-17T18:43:53.373Z,42
2022-08-17T18:48:55.924Z,42
2022-08-17T19:03:53.474Z,43
2022-08-17T19:08:55.073Z,45
2022-08-17T19:13:56.365Z,45
2022-08-17T19:18:58.503Z,45
2022-08-17T19:24:08.824Z,45
2022-08-17T19:29:01.041Z,48
2022-08-17T19:34:03.006Z,47
2022-08-17T19:39:04.345Z,47
2022-08-17T19:44:12.164Z,47
2022-08-17T19:49:14.238Z,48
2022-08-17T19:54:15.740Z,47
2022-08-17T19:59:17.563Z,47
2022-08-17T20:04:18.935Z,48
2022-08-17T20:09:20.757Z,51
2022-08-17T20:14:22.363Z,49
2022-08-17T20:19:24.109Z,48
2022-08-17T20:24:25.395Z,48
2022-08-17T20:29:37.872Z,50
2022-08-17T20:34:30.932Z,49
2022-08-17T20:39:30.271Z,48
2022-08-17T20:44:31.532Z,48
2022-08-17T20:49:33.571Z,49
2022-08-17T20:54:35.704Z,48
2022-08-17T20:59:37.668Z,49
2022-08-17T21:04:39.729Z,49
2022-08-17T21:09:41.850Z,49
2022-08-17T21:14:43.798Z,50
2022-08-17T21:20:13.920Z,52
2022-08-17T21:24:47.363Z,51
2022-08-17T21:29:48.788Z,51
2022-08-17T21:34:50.684Z,51
2022-08-17T21:39:52.033Z,51
2022-08-17T21:44:53.611Z,53
2022-08-17T21:49:55.448Z,53
2022-08-17T21:54:57.353Z,54
2022-08-17T21:59:59.235Z,53
2022-08-17T22:15:04.767Z,53
2022-08-17T22:20:06.918Z,54
2022-08-17T22:25:08.258Z,57
2022-08-17T22:30:09.934Z,56
2022-08-17T22:35:11.083Z,57
2022-08-17T22:40:12.295Z,59
2022-08-17T22:45:13.849Z,63
2022-08-17T22:50:15.724Z,78
2022-08-17T22:55:16.970Z,85
2022-08-17T23:00:19.125Z,87
2022-08-17T23:05:21.236Z,91
2022-08-17T23:10:23.120Z,97
2022-08-17T23:15:24.683Z,100
2022-08-17T23:20:26.796Z,100
2022-08-17T23:25:28.722Z,100
2022-08-17T23:30:30.762Z,100
2022-08-17T23:35:39.446Z,100
2022-08-17T23:40:34.303Z,100
2022-08-17T23:45:36.358Z,100
2022-08-17T23:50:38.035Z,100
2022-08-17T23:55:39.450Z,100
